Addy, Washington
Current Conditions -  °F | °C
As of 10:53 AM on Saturday 25 Oct 2014 (Local Time) from KDEW Reporting Station
Clear Clear  
Wind Chill: 55°   Ceiling: Unl
Heat Index: 55°   Visibility: 10mi
Dew Point: 41°   Wind: 13mph
Humidity: 59%   Direction: 20°NNE
Pressure: 29.64"   Gusts: NA
Location:  48.36°N, 117.84°W
Report Text: KDEW 251753Z AUTO 02011KT 10SM CLR 13/05 A2964 RMK AO2 SLP038 T01280050 10128 20083 57025
Loading
Personal Weather Stations






























Interactive Weather Map
Tropical Storm Tracking
New forecast layout! Learn more

10-Day Weather Forecast

Advertisements
Track Severe Weather on mobile